Weather Data

Pearl Creek Farm: 8878 N Farm Road 75, Walnut Grove MO 65770

<== Previous Day (Saturday 13 Sep 2014) | Next Day (Monday 15 Sep 2014) ==>

Summary Precipitation Data For Sunday 14 September 2014

ElementValueUnits
Precipitation0"
NotesAny precipitation for this day was included with a multiple-day report on 15 September 2014.
SourcePearl Creek Farm

Summary Temperature Data For Sunday 14 September 2014

ElementValueUnits
High Temperature75 oF
Low Temperature49 oF
Average Temperature61 oF
High Humidity91 %
Low Humidity60 %
Average Humidity78 %
SourcePearl Creek Farm

Detail Temperature Data For Sunday 14 September 2014

Date / TimeTemp (F)RH (%)Dew Pt (F)Report Date / TimeSource
2014-09-14 00:00:00 53 84 48.3 2014-11-02 13:41:02 Pearl Creek Farm
2014-09-14 00:30:00 52 85 47.5 2014-11-02 13:41:02 Pearl Creek Farm
2014-09-14 01:00:00 52 85 47.6 2014-11-02 13:41:02 Pearl Creek Farm
2014-09-14 01:30:00 51 85 46.7 2014-11-02 13:41:02 Pearl Creek Farm
2014-09-14 02:00:00 51 85 46.7 2014-11-02 13:41:02 Pearl Creek Farm
2014-09-14 02:30:00 51 86 46.8 2014-11-02 13:41:02 Pearl Creek Farm
2014-09-14 03:00:00 51 86 47.0 2014-11-02 13:41:02 Pearl Creek Farm
2014-09-14 03:30:00 50 86 46.0 2014-11-02 13:41:02 Pearl Creek Farm
2014-09-14 04:00:00 50 86 46.0 2014-11-02 13:41:02 Pearl Creek Farm
2014-09-14 04:30:00 50 87 46.1 2014-11-02 13:41:02 Pearl Creek Farm
2014-09-14 05:00:00 50 87 46.1 2014-11-02 13:41:02 Pearl Creek Farm
2014-09-14 05:30:00 49 87 45.3 2014-11-02 13:41:02 Pearl Creek Farm
2014-09-14 06:00:00 50 88 46.4 2014-11-02 13:41:02 Pearl Creek Farm
2014-09-14 06:30:00 50 88 46.6 2014-11-02 13:41:02 Pearl Creek Farm
2014-09-14 07:00:00 50 88 46.6 2014-11-02 13:41:02 Pearl Creek Farm
2014-09-14 07:30:00 50 89 46.9 2014-11-02 13:41:02 Pearl Creek Farm
2014-09-14 08:00:00 51 90 48.2 2014-11-02 13:41:02 Pearl Creek Farm
2014-09-14 08:30:00 53 91 50.4 2014-11-02 13:41:02 Pearl Creek Farm
2014-09-14 09:00:00 55 90 52.0 2014-11-02 13:41:02 Pearl Creek Farm
2014-09-14 09:30:00 58 87 54.2 2014-11-02 13:41:02 Pearl Creek Farm
2014-09-14 10:00:00 60 84 55.0 2014-11-02 13:41:02 Pearl Creek Farm
2014-09-14 10:30:00 62 82 56.3 2014-11-02 13:41:02 Pearl Creek Farm
2014-09-14 11:00:00 63 78 55.9 2014-11-02 13:41:02 Pearl Creek Farm
2014-09-14 11:30:00 65 77 57.4 2014-11-02 13:41:02 Pearl Creek Farm
2014-09-14 12:00:00 66 74 57.5 2014-11-02 13:41:02 Pearl Creek Farm
2014-09-14 12:30:00 67 74 58.3 2014-11-02 13:41:02 Pearl Creek Farm
2014-09-14 13:00:00 69 70 58.8 2014-11-02 13:41:02 Pearl Creek Farm
2014-09-14 13:30:00 70 69 59.4 2014-11-02 13:41:02 Pearl Creek Farm
2014-09-14 14:00:00 71 65 58.6 2014-11-02 13:41:02 Pearl Creek Farm
2014-09-14 14:30:00 72 64 59.2 2014-11-02 13:41:02 Pearl Creek Farm
2014-09-14 15:00:00 73 63 59.7 2014-11-02 13:41:02 Pearl Creek Farm
2014-09-14 15:30:00 74 61 59.7 2014-11-02 13:41:02 Pearl Creek Farm
2014-09-14 16:00:00 75 60 60.2 2014-11-02 13:41:02 Pearl Creek Farm
2014-09-14 16:30:00 75 61 60.4 2014-11-02 13:41:02 Pearl Creek Farm
2014-09-14 17:00:00 75 60 59.9 2014-11-02 13:41:02 Pearl Creek Farm
2014-09-14 17:30:00 74 61 59.7 2014-11-02 13:41:02 Pearl Creek Farm
2014-09-14 18:00:00 74 60 59.0 2014-11-02 13:41:02 Pearl Creek Farm
2014-09-14 18:30:00 73 66 61.0 2014-11-02 13:41:02 Pearl Creek Farm
2014-09-14 19:00:00 71 70 60.7 2014-11-02 13:41:02 Pearl Creek Farm
2014-09-14 19:30:00 70 73 60.8 2014-11-02 13:41:02 Pearl Creek Farm
2014-09-14 20:00:00 68 73 59.0 2014-11-02 13:41:02 Pearl Creek Farm
2014-09-14 20:30:00 66 76 58.2 2014-11-02 13:41:02 Pearl Creek Farm
2014-09-14 21:00:00 65 80 58.5 2014-11-02 13:41:02 Pearl Creek Farm
2014-09-14 21:30:00 65 80 58.7 2014-11-02 13:41:02 Pearl Creek Farm
2014-09-14 22:00:00 64 79 57.2 2014-11-02 13:41:02 Pearl Creek Farm
2014-09-14 22:30:00 64 79 57.4 2014-11-02 13:41:02 Pearl Creek Farm
2014-09-14 23:00:00 64 78 56.8 2014-11-02 13:41:02 Pearl Creek Farm
2014-09-14 23:30:00 64 78 56.8 2014-11-02 13:41:02 Pearl Creek Farm

A total of 48 rows are displayed.